Killin, United Kingdom
Current Conditions -  °F | °C
As of 3:50 PM on Sunday 25 Jan 2015 (Local Time) from EGPF Reporting Station
Light Rain Light Rain  
Wind Chill: 41°   Ceiling: 700
Heat Index: 48°   Visibility: 2.5mi
Dew Point: 46°   Wind: 21mph
Humidity: 93%   Direction: 220°SW
Pressure: 30"   Gusts: NA
Location:  56.45°N, 4.33°W
Report Text: EGPF 251550Z AUTO 22018KT 4000 -RA OVC007 09/08 Q1016 RERA
Loading
Personal Weather Stations






























Interactive Weather Map New forecast layout! Learn more

10-Day Weather Forecast

Advertisements
Track Severe Weather on mobile